Time;durP1;ratioP1;P1;durP2;ratioP2;P2;SDS_P1;SDS_P2;PMS_P1;PMS_P2;Temp;Humidity;BMP_temperature;BMP_pressure;BME280_temperature;BME280_humidity;BME280_pressure;Samples;Min_cycle;Max_cycle;Signal;HPM_P1;HPM_P2
2023/06/01 00:02:03;;;;;;;2.90;1.90;;;11.90;99.90;;;;;;5074279;28;20036;-63
2023/06/01 00:04:28;;;;;;;5.45;2.10;;;11.90;99.90;;;;;;5074141;28;20048;-63
2023/06/01 00:06:54;;;;;;;2.65;1.52;;;11.90;99.90;;;;;;5074205;28;20467;-62
2023/06/01 00:09:20;;;;;;;4.05;1.73;;;11.90;99.90;;;;;;5074228;28;20044;-63
2023/06/01 00:11:46;;;;;;;4.93;1.85;;;11.90;99.90;;;;;;5073941;28;20538;-63
2023/06/01 00:14:12;;;;;;;5.50;2.25;;;11.90;99.90;;;;;;5074091;28;20056;-63
2023/06/01 00:16:37;;;;;;;7.45;2.22;;;11.90;99.90;;;;;;5039174;28;20503;-63
2023/06/01 00:19:03;;;;;;;3.75;1.70;;;11.90;99.90;;;;;;5073962;28;20044;-63
2023/06/01 00:21:32;;;;;;;5.07;2.10;;;11.90;1.00;;;;;;5073964;28;20062;-63
2023/06/01 00:23:58;;;;;;;6.68;2.10;;;11.90;1.00;;;;;;5073804;28;20044;-63
2023/06/01 00:26:25;;;;;;;3.38;1.90;;;12.20;99.90;;;;;;5073844;28;20032;-62
2023/06/01 00:28:50;;;;;;;5.05;2.00;;;11.80;99.90;;;;;;5073706;28;20040;-63
2023/06/01 00:31:16;;;;;;;4.15;1.90;;;11.80;99.90;;;;;;5073289;28;20432;-63
2023/06/01 00:33:41;;;;;;;9.73;2.40;;;11.80;99.90;;;;;;5055056;28;20171;-62
2023/06/01 00:36:07;;;;;;;6.78;2.58;;;12.30;99.90;;;;;;5055814;28;20080;-63
2023/06/01 00:38:33;;;;;;;5.10;2.10;;;11.80;99.90;;;;;;5073567;28;20040;-63
2023/06/01 00:40:59;;;;;;;12.18;2.67;;;11.80;99.90;;;;;;5073325;28;20033;-63
2023/06/01 00:43:24;;;;;;;6.80;2.20;;;11.80;99.90;;;;;;5055408;28;20137;-63
2023/06/01 00:45:50;;;;;;;5.80;1.95;;;12.30;99.90;;;;;;5073509;28;20114;-63
2023/06/01 00:48:17;;;;;;;3.42;1.80;;;11.70;99.90;;;;;;5073118;28;20040;-63
2023/06/01 00:50:43;;;;;;;8.15;2.10;;;11.70;99.90;;;;;;5073403;28;20043;-63
2023/06/01 00:53:17;;;;;;;4.75;2.22;;;11.70;99.90;;;;;;5073366;28;20411;-63
2023/06/01 00:55:43;;;;;;;5.85;2.55;;;11.70;1.00;;;;;;5055117;28;20098;-63
2023/06/01 00:58:09;;;;;;;6.93;2.03;;;11.70;99.90;;;;;;5073341;28;20044;-63
2023/06/01 01:00:37;;;;;;;4.38;1.70;;;11.60;99.90;;;;;;5072954;28;20040;-63
2023/06/01 01:03:07;;;;;;;5.57;2.38;;;11.60;99.90;;;;;;5073151;28;20059;-63
2023/06/01 01:05:33;;;;;;;8.90;2.00;;;11.60;99.90;;;;;;5073237;28;20062;-63
2023/06/01 01:08:27;;;;;;;10.55;2.17;;;11.50;99.90;;;;;;5073145;28;20503;-63
2023/06/01 01:11:04;;;;;;;3.85;1.92;;;11.50;99.90;;;;;;5072782;28;20033;-63
2023/06/01 01:13:54;;;;;;;3.22;1.88;;;9.80;99.90;;;;;;5054737;28;20443;-63
2023/06/01 01:16:35;;;;;;;3.70;1.65;;;11.60;99.90;;;;;;5072822;28;20051;-63
2023/06/01 01:19:16;;;;;;;5.15;2.22;;;11.50;1.00;;;;;;5073105;28;20129;-63
2023/06/01 01:21:47;;;;;;;3.35;2.00;;;12.00;99.90;;;;;;5073035;28;20076;-63
2023/06/01 01:24:32;;;;;;;4.80;1.83;;;11.60;99.90;;;;;;5072925;28;20041;-63
2023/06/01 01:27:37;;;;;;;3.88;1.83;;;10.90;99.90;;;;;;5072629;28;20036;-63
2023/06/01 01:30:05;;;;;;;5.78;1.85;;;11.60;1.00;;;;;;5072590;28;20128;-63
2023/06/01 01:32:32;;;;;;;8.50;2.13;;;11.60;1.00;;;;;;5072607;28;20051;-63
2023/06/01 01:35:00;;;;;;;3.10;1.80;;;11.50;1.00;;;;;;5072602;28;20048;-63
2023/06/01 01:37:25;;;;;;;5.13;1.60;;;11.60;1.00;;;;;;5072903;28;20035;-63
2023/06/01 01:39:51;;;;;;;7.30;2.17;;;11.80;1.00;;;;;;5072837;28;20024;-62
2023/06/01 01:42:17;;;;;;;5.53;2.40;;;11.50;1.00;;;;;;5072873;28;20093;-63
2023/06/01 01:44:43;;;;;;;3.50;1.92;;;11.50;1.00;;;;;;5075973;28;20043;-63
2023/06/01 01:47:41;;;;;;;5.20;1.70;;;11.50;1.00;;;;;;5075649;28;20036;-63
2023/06/01 01:50:11;;;;;;;2.88;1.73;;;11.40;1.00;;;;;;5058949;28;20093;-63
2023/06/01 01:52:43;;;;;;;4.22;1.73;;;11.40;1.00;;;;;;5076782;28;20037;-63
2023/06/01 01:55:10;;;;;;;4.95;2.28;;;11.40;1.00;;;;;;5076819;28;20040;-63
2023/06/01 01:57:37;;;;;;;3.88;1.50;;;11.50;99.90;;;;;;5076401;28;20049;-63
2023/06/01 02:00:05;;;;;;;3.60;1.73;;;11.40;1.00;;;;;;5076648;28;20037;-63
2023/06/01 02:02:31;;;;;;;5.25;2.13;;;11.50;99.90;;;;;;5076437;28;20028;-63
2023/06/01 02:04:57;;;;;;;9.43;2.13;;;11.40;1.00;;;;;;5076431;28;20033;-63
2023/06/01 02:07:22;;;;;;;5.47;2.28;;;11.40;1.00;;;;;;5076217;28;20150;-62
2023/06/01 02:09:48;;;;;;;4.97;2.30;;;11.40;1.00;;;;;;5076163;28;20079;-63
2023/06/01 02:12:14;;;;;;;5.35;2.03;;;11.60;9.60;;;;;;5076183;28;20056;-63
2023/06/01 02:14:39;;;;;;;4.57;1.85;;;11.40;1.00;;;;;;5076039;28;20054;-63
2023/06/01 02:17:07;;;;;;;3.58;2.10;;;11.50;1.00;;;;;;5076340;28;20115;-63
2023/06/01 02:19:33;;;;;;;4.03;1.88;;;11.40;75.60;;;;;;5076257;28;20044;-63
2023/06/01 02:21:58;;;;;;;5.82;2.28;;;11.40;1.00;;;;;;5076500;28;20457;-63
2023/06/01 02:24:24;;;;;;;7.15;2.30;;;11.40;1.00;;;;;;5076092;28;20072;-63
2023/06/01 02:26:53;;;;;;;2.38;1.48;;;11.40;1.00;;;;;;5075871;28;20036;-63
2023/06/01 02:29:22;;;;;;;4.20;2.08;;;11.60;1.00;;;;;;5076049;28;20043;-63
2023/06/01 02:31:49;;;;;;;6.35;2.25;;;11.80;1.00;;;;;;5075959;28;20048;-63
2023/06/01 02:34:15;;;;;;;3.67;1.80;;;11.40;99.90;;;;;;5075968;28;20504;-63
2023/06/01 02:36:40;;;;;;;3.88;1.60;;;11.40;1.00;;;;;;5057807;28;20041;-63
2023/06/01 02:39:06;;;;;;;8.23;1.90;;;11.40;99.90;;;;;;5075796;28;20369;-63
2023/06/01 02:41:31;;;;;;;5.55;1.85;;;11.40;99.90;;;;;;5075877;28;20203;-63
2023/06/01 02:43:57;;;;;;;3.08;1.60;;;11.30;99.90;;;;;;5075770;28;20102;-63
2023/06/01 02:46:23;;;;;;;3.80;1.70;;;11.40;99.90;;;;;;5075775;28;20040;-63
2023/06/01 02:48:48;;;;;;;4.93;1.60;;;11.30;99.90;;;;;;5075765;28;20036;-63
2023/06/01 02:51:15;;;;;;;3.50;1.80;;;11.40;1.00;;;;;;5057516;28;20040;-63
2023/06/01 02:53:41;;;;;;;8.77;1.70;;;11.40;99.90;;;;;;5075599;28;20453;-63
2023/06/01 02:56:07;;;;;;;5.45;1.95;;;11.40;99.90;;;;;;5056190;28;20385;-63
2023/06/01 02:58:32;;;;;;;3.92;1.88;;;11.30;13.20;;;;;;5057873;28;20043;-63
2023/06/01 03:00:58;;;;;;;4.13;1.95;;;11.30;35.40;;;;;;5075531;28;20055;-63
2023/06/01 03:03:27;;;;;;;3.38;2.40;;;11.80;1.00;;;;;;5075413;28;20079;-63
2023/06/01 03:05:53;;;;;;;4.75;1.88;;;11.30;99.90;;;;;;5075091;28;20076;-63
2023/06/01 03:08:19;;;;;;;3.88;2.10;;;11.30;90.50;;;;;;5075422;28;20032;-63
2023/06/01 03:10:45;;;;;;;5.63;2.20;;;11.30;1.00;;;;;;5074991;28;20373;-63
2023/06/01 03:13:11;;;;;;;7.38;1.95;;;11.40;1.00;;;;;;5074859;28;20060;-62
2023/06/01 03:15:37;;;;;;;6.13;2.05;;;11.30;1.00;;;;;;5075250;28;20111;-63
2023/06/01 03:18:05;;;;;;;6.15;2.10;;;11.30;1.00;;;;;;5075185;28;20123;-63
2023/06/01 03:20:32;;;;;;;6.75;2.30;;;11.30;8.30;;;;;;5075093;28;20127;-63
2023/06/01 03:22:57;;;;;;;4.43;1.60;;;11.30;1.00;;;;;;5074959;28;20090;-63
2023/06/01 03:25:24;;;;;;;3.47;1.50;;;11.30;99.90;;;;;;5075080;28;20536;-63
2023/06/01 03:27:50;;;;;;;4.65;2.22;;;11.30;99.90;;;;;;5074997;28;20400;-63
2023/06/01 03:30:16;;;;;;;2.50;1.48;;;11.30;99.90;;;;;;5074984;28;20037;-63
2023/06/01 03:32:43;;;;;;;6.13;1.65;;;11.30;99.90;;;;;;5074894;28;20044;-63
2023/06/01 03:35:10;;;;;;;5.18;1.92;;;11.30;99.90;;;;;;5074940;28;20033;-63
2023/06/01 03:37:37;;;;;;;2.67;1.27;;;11.30;99.90;;;;;;5074547;28;20044;-63
2023/06/01 03:40:10;;;;;;;3.58;1.88;;;11.30;1.00;;;;;;5074814;28;20102;-63
2023/06/01 03:42:41;;;;;;;3.15;1.40;;;11.20;1.00;;;;;;5074361;28;20480;-63
2023/06/01 03:45:08;;;;;;;3.28;1.25;;;11.20;1.00;;;;;;5074791;28;20051;-63
2023/06/01 03:47:33;;;;;;;3.17;1.67;;;11.20;1.00;;;;;;5074598;28;20137;-63
2023/06/01 03:50:01;;;;;;;3.63;1.58;;;11.20;1.00;;;;;;5074598;28;20488;-64
2023/06/01 03:52:27;;;;;;;3.17;1.48;;;11.20;1.00;;;;;;5074229;28;20041;-63
2023/06/01 03:54:54;;;;;;;2.22;1.17;;;11.20;1.00;;;;;;5074212;28;20430;-63
2023/06/01 03:57:20;;;;;;;4.50;1.50;;;11.30;1.00;;;;;;5074448;28;20119;-63
2023/06/01 03:59:46;;;;;;;5.10;1.40;;;11.30;1.00;;;;;;5074350;28;20377;-63
2023/06/01 04:02:12;;;;;;;2.88;1.73;;;11.30;1.00;;;;;;5074333;28;20094;-63
2023/06/01 04:04:40;;;;;;;5.25;1.67;;;11.30;99.90;;;;;;5074156;28;20066;-62
2023/06/01 04:07:09;;;;;;;4.72;1.60;;;11.20;99.90;;;;;;5074009;28;20506;-63
2023/06/01 04:09:37;;;;;;;3.78;1.63;;;11.30;99.90;;;;;;5074126;28;20473;-63
2023/06/01 04:12:03;;;;;;;4.90;1.55;;;11.40;1.00;;;;;;5055658;28;20064;-63
2023/06/01 04:14:28;;;;;;;3.70;1.50;;;11.30;1.00;;;;;;5074118;28;20053;-63
2023/06/01 04:16:55;;;;;;;4.10;1.40;;;11.30;1.00;;;;;;5073961;28;20499;-63
2023/06/01 04:19:20;;;;;;;3.17;2.22;;;11.50;99.90;;;;;;5056212;28;20484;-63
2023/06/01 04:21:46;;;;;;;6.43;1.70;;;11.50;99.90;;;;;;5073917;28;20097;-63
2023/06/01 04:24:12;;;;;;;6.88;1.90;;;11.40;99.90;;;;;;5055626;28;20052;-63
2023/06/01 04:26:37;;;;;;;3.17;1.50;;;11.40;45.10;;;;;;5073720;28;20072;-63
2023/06/01 04:29:03;;;;;;;3.03;1.60;;;11.40;99.90;;;;;;5073526;28;20041;-63
2023/06/01 04:31:29;;;;;;;4.22;1.85;;;11.40;99.90;;;;;;5073518;28;20480;-63
2023/06/01 04:33:56;;;;;;;6.25;1.95;;;11.40;99.90;;;;;;5073669;28;20054;-63
2023/06/01 04:36:23;;;;;;;3.22;1.63;;;11.40;99.90;;;;;;5073325;28;20047;-63
2023/06/01 04:38:54;;;;;;;4.63;1.80;;;11.40;99.90;;;;;;5073273;28;20083;-63
2023/06/01 04:41:21;;;;;;;;;;;11.40;99.90;;;;;;5073997;28;20036;-62
2023/06/01 04:43:58;;;;;;;3.50;1.50;;;11.40;99.90;;;;;;5071969;28;19999;-63
2023/06/01 04:46:26;;;;;;;4.45;1.45;;;11.50;99.90;;;;;;5055647;28;20578;-64
2023/06/01 04:48:55;;;;;;;5.25;1.80;;;11.40;1.00;;;;;;5073166;28;20083;-63
2023/06/01 04:51:21;;;;;;;3.25;1.80;;;11.40;99.90;;;;;;5055155;28;20139;-62
2023/06/01 04:53:51;;;;;;;4.95;1.98;;;11.40;99.90;;;;;;5073028;28;20066;-63
2023/06/01 04:56:26;;;;;;;3.95;1.95;;;11.40;99.90;;;;;;5073036;28;20040;-62
2023/06/01 04:58:54;;;;;;;6.50;1.65;;;11.40;99.90;;;;;;5055333;28;20094;-63
2023/06/01 05:01:24;;;;;;;4.93;2.35;;;11.40;99.90;;;;;;5072934;28;20157;-63
2023/06/01 05:03:51;;;;;;;2.22;1.60;;;11.40;1.00;;;;;;5073076;28;20415;-63
2023/06/01 05:06:19;;;;;;;3.38;1.15;;;12.10;99.90;;;;;;5072866;28;20090;-62
2023/06/01 05:08:45;;;;;;;3.45;1.90;;;11.40;39.90;;;;;;5073007;28;20037;-63
2023/06/01 05:11:11;;;;;;;3.50;1.63;;;12.00;99.90;;;;;;5073047;28;20033;-65
2023/06/01 05:13:40;;;;;;;5.53;2.08;;;11.40;57.50;;;;;;5072714;28;20064;-63
2023/06/01 05:16:08;;;;;;;3.38;1.98;;;11.40;1.00;;;;;;5072767;28;20107;-63
2023/06/01 05:18:35;;;;;;;3.28;1.63;;;11.50;1.00;;;;;;5072351;28;20494;-63
2023/06/01 05:21:01;;;;;;;2.90;1.90;;;11.40;1.00;;;;;;5073050;28;20036;-63
2023/06/01 05:23:28;;;;;;;2.97;1.80;;;12.10;99.90;;;;;;5072780;28;20420;-63
2023/06/01 05:26:02;;;;;;;6.75;1.77;;;11.40;99.90;;;;;;5072593;28;20080;-63
2023/06/01 05:28:31;;;;;;;5.85;1.50;;;11.40;1.00;;;;;;5072617;28;20044;-63
2023/06/01 05:30:57;;;;;;;3.08;1.45;;;11.50;95.10;;;;;;5072600;28;20036;-63
2023/06/01 05:33:23;;;;;;;5.47;1.65;;;11.50;99.90;;;;;;5072808;28;20036;-62
2023/06/01 05:35:48;;;;;;;1.98;1.20;;;11.80;15.10;;;;;;5072853;28;20120;-62
2023/06/01 05:38:14;;;;;;;4.28;1.40;;;11.50;3.80;;;;;;5072834;28;20049;-62
2023/06/01 05:40:40;;;;;;;1.75;1.13;;;11.50;99.90;;;;;;5072509;28;20154;-63
2023/06/01 05:43:07;;;;;;;3.10;1.83;;;11.50;1.00;;;;;;5072658;28;20043;-63
2023/06/01 05:45:33;;;;;;;3.15;1.40;;;11.50;99.90;;;;;;5072738;28;20068;-63
2023/06/01 05:47:59;;;;;;;3.28;2.08;;;11.60;1.00;;;;;;5072627;28;20032;-63
2023/06/01 05:50:25;;;;;;;3.13;1.70;;;12.90;99.90;;;;;;5072712;28;20039;-63
2023/06/01 05:52:51;;;;;;;4.13;1.90;;;11.60;99.90;;;;;;5072581;28;20494;-63
2023/06/01 05:55:16;;;;;;;3.30;1.73;;;11.60;99.90;;;;;;5072657;28;20400;-65
2023/06/01 05:57:42;;;;;;;3.75;1.73;;;11.60;99.90;;;;;;5054291;28;20037;-64
2023/06/01 06:00:12;;;;;;;2.85;1.65;;;11.60;99.90;;;;;;5072619;28;20496;-65
2023/06/01 06:02:38;;;;;;;2.35;1.30;;;11.60;99.90;;;;;;5072492;28;20037;-64
2023/06/01 06:05:04;;;;;;;3.03;1.40;;;11.60;99.90;;;;;;5072566;28;20044;-64
2023/06/01 06:07:30;;;;;;;4.65;1.67;;;11.70;99.90;;;;;;5072577;28;20041;-63
2023/06/01 06:09:56;;;;;;;2.45;1.40;;;11.60;99.90;;;;;;5072422;28;20039;-70
2023/06/01 06:12:22;;;;;;;3.30;1.40;;;13.00;1.00;;;;;;5037588;28;20064;-63
2023/06/01 06:14:48;;;;;;;2.20;1.13;;;11.70;1.00;;;;;;5072431;28;20044;-64
2023/06/01 06:17:15;;;;;;;2.67;1.35;;;11.70;1.00;;;;;;5072169;28;20080;-64
2023/06/01 06:19:43;;;;;;;4.22;1.30;;;11.70;1.00;;;;;;5072373;28;20433;-63
2023/06/01 06:22:09;;;;;;;1.02;0.82;;;11.70;1.00;;;;;;5071934;28;20045;-63
2023/06/01 06:24:35;;;;;;;2.05;1.05;;;11.80;1.00;;;;;;5054036;28;20048;-63
2023/06/01 06:27:01;;;;;;;3.00;1.10;;;11.80;1.00;;;;;;5072395;28;20049;-63
2023/06/01 06:29:27;;;;;;;1.95;0.93;;;12.50;3.20;;;;;;5073170;28;20045;-63
2023/06/01 06:31:53;;;;;;;5.35;1.33;;;11.70;19.60;;;;;;5075989;28;20495;-63
2023/06/01 06:34:18;;;;;;;1.92;0.93;;;11.80;19.10;;;;;;5076022;28;20437;-63
2023/06/01 06:36:44;;;;;;;2.22;0.90;;;11.80;14.00;;;;;;5076000;28;20044;-63
2023/06/01 06:39:10;;;;;;;2.53;1.17;;;11.80;20.10;;;;;;5057760;28;20472;-63
2023/06/01 06:41:36;;;;;;;2.80;1.08;;;11.90;17.70;;;;;;5075442;28;20045;-66
2023/06/01 06:44:01;;;;;;;3.17;1.40;;;11.90;11.20;;;;;;5075373;28;20055;-63
2023/06/01 06:46:27;;;;;;;1.98;0.80;;;12.00;7.90;;;;;;5075415;28;20074;-64
2023/06/01 06:48:52;;;;;;;1.38;0.80;;;12.00;1.00;;;;;;5075600;28;20115;-64
2023/06/01 06:51:18;;;;;;;1.67;1.00;;;12.10;1.00;;;;;;5075401;28;20032;-64
2023/06/01 06:53:44;;;;;;;4.07;1.13;;;12.70;1.00;;;;;;5075389;28;20036;-63
2023/06/01 06:56:09;;;;;;;1.02;0.60;;;12.00;1.00;;;;;;5075521;28;20040;-64
2023/06/01 06:58:35;;;;;;;2.17;1.05;;;12.10;1.00;;;;;;5075464;28;20032;-66
2023/06/01 07:01:04;;;;;;;3.28;1.23;;;12.20;1.00;;;;;;5075517;28;20186;-64
2023/06/01 07:03:33;;;;;;;2.60;1.00;;;12.20;1.00;;;;;;5075308;28;20082;-64
2023/06/01 07:05:59;;;;;;;3.30;1.05;;;12.30;1.00;;;;;;5075772;28;20036;-64
2023/06/01 07:08:26;;;;;;;3.38;0.90;;;12.40;1.00;;;;;;5075240;28;20435;-65
2023/06/01 07:10:55;;;;;;;1.65;0.88;;;13.00;1.00;;;;;;5074871;28;20040;-64
2023/06/01 07:13:21;;;;;;;2.15;1.02;;;12.50;1.00;;;;;;5074790;28;20052;-64
2023/06/01 07:15:47;;;;;;;2.00;0.68;;;12.80;1.00;;;;;;5074843;28;20056;-64
2023/06/01 07:18:13;;;;;;;1.33;0.80;;;12.60;1.00;;;;;;5075084;28;20040;-65
2023/06/01 07:20:38;;;;;;;1.15;0.70;;;12.70;99.90;;;;;;5075038;28;20040;-64
2023/06/01 07:23:04;;;;;;;1.50;1.00;;;12.70;99.90;;;;;;5074609;28;20503;-64
2023/06/01 07:25:30;;;;;;;1.85;0.77;;;12.60;99.90;;;;;;5075016;28;20041;-64
2023/06/01 07:27:56;;;;;;;2.35;1.00;;;12.80;99.90;;;;;;5074912;28;20472;-65
2023/06/01 07:30:22;;;;;;;2.67;0.80;;;12.70;99.90;;;;;;5074938;28;20101;-64
2023/06/01 07:32:47;;;;;;;1.15;0.70;;;13.00;1.00;;;;;;5074790;28;20086;-64
2023/06/01 07:35:13;;;;;;;1.38;0.90;;;13.00;99.90;;;;;;5074810;28;20472;-64
2023/06/01 07:37:40;;;;;;;1.20;0.80;;;12.70;99.90;;;;;;5074467;28;20373;-64
2023/06/01 07:40:06;;;;;;;5.32;1.13;;;12.60;1.00;;;;;;5074744;28;20044;-64
2023/06/01 07:42:32;;;;;;;1.85;0.90;;;12.60;99.90;;;;;;5074111;28;20044;-64
2023/06/01 07:44:58;;;;;;;1.60;1.08;;;12.70;99.90;;;;;;5074523;28;20045;-63
2023/06/01 07:47:25;;;;;;;1.30;0.63;;;12.60;99.90;;;;;;5074621;28;20395;-67
2023/06/01 07:49:51;;;;;;;1.50;0.75;;;12.70;99.90;;;;;;5056461;28;20080;-65
2023/06/01 07:52:18;;;;;;;2.20;0.93;;;12.60;1.00;;;;;;5074110;28;20044;-66
2023/06/01 07:54:44;;;;;;;1.42;0.60;;;12.70;99.90;;;;;;5073969;28;20045;-65
2023/06/01 07:57:09;;;;;;;1.15;0.70;;;12.70;99.90;;;;;;5074301;28;20033;-65
2023/06/01 07:59:35;;;;;;;2.25;0.90;;;13.00;1.00;;;;;;5073177;28;20127;-65
2023/06/01 08:02:01;;;;;;;1.95;0.70;;;12.70;1.00;;;;;;5074377;28;20365;-65
2023/06/01 08:04:33;;;;;;;1.23;0.80;;;12.70;99.90;;;;;;5074201;28;20036;-65
2023/06/01 08:06:59;;;;;;;1.00;0.60;;;12.70;1.00;;;;;;5074259;28;20033;-65
2023/06/01 08:09:24;;;;;;;0.98;0.63;;;12.70;99.90;;;;;;5074180;28;20036;-65
2023/06/01 08:11:50;;;;;;;0.82;0.60;;;12.60;99.90;;;;;;5074037;28;20048;-65
2023/06/01 08:14:16;;;;;;;1.58;0.82;;;12.70;99.90;;;;;;5074042;28;20164;-65
2023/06/01 08:16:42;;;;;;;1.60;0.65;;;12.60;99.90;;;;;;5073822;28;20055;-65
2023/06/01 08:19:08;;;;;;;1.15;0.70;;;12.60;99.90;;;;;;5073832;28;20484;-65
2023/06/01 08:21:35;;;;;;;1.13;0.70;;;12.70;99.90;;;;;;5056142;28;20052;-65
2023/06/01 08:24:01;;;;;;;1.63;0.75;;;12.60;99.90;;;;;;5073867;28;20047;-65
2023/06/01 08:26:28;;;;;;;1.63;0.90;;;12.60;99.90;;;;;;5073951;28;20028;-65
2023/06/01 08:28:53;;;;;;;2.47;1.02;;;12.50;99.90;;;;;;5073750;28;20051;-65
2023/06/01 08:31:20;;;;;;;1.73;1.13;;;13.00;1.00;;;;;;5073789;28;20028;-65
2023/06/01 08:33:46;;;;;;;2.55;0.88;;;12.60;1.00;;;;;;5073467;28;20033;-65
2023/06/01 08:36:12;;;;;;;2.72;0.70;;;12.70;99.90;;;;;;5055386;28;20052;-65
2023/06/01 08:38:39;;;;;;;3.38;1.40;;;12.70;99.90;;;;;;5073566;28;20032;-64
2023/06/01 08:41:24;;;;;;;1.63;0.85;;;12.70;99.90;;;;;;5073552;28;20048;-65
2023/06/01 08:43:58;;;;;;;2.35;1.00;;;12.70;99.90;;;;;;5073430;28;20043;-65
2023/06/01 08:46:25;;;;;;;3.00;1.25;;;12.70;99.90;;;;;;5073523;28;20047;-65
2023/06/01 08:48:55;;;;;;;2.50;1.20;;;12.70;99.90;;;;;;5073240;28;20049;-64
2023/06/01 08:51:22;;;;;;;1.77;1.17;;;12.70;99.90;;;;;;5073439;28;20500;-65
2023/06/01 08:53:50;;;;;;;2.38;0.85;;;12.70;1.00;;;;;;5072130;28;20036;-65
2023/06/01 08:56:15;;;;;;;3.28;1.15;;;12.70;1.00;;;;;;5072980;28;20036;-65
2023/06/01 08:58:43;;;;;;;0.95;0.80;;;12.80;99.90;;;;;;5073320;28;20040;-66
2023/06/01 09:01:09;;;;;;;0.90;0.70;;;12.80;1.00;;;;;;5073012;28;20043;-65
2023/06/01 09:03:35;;;;;;;1.27;0.77;;;12.90;1.00;;;;;;5072896;28;20524;-65
2023/06/01 09:06:01;;;;;;;1.70;0.98;;;13.00;99.90;;;;;;5073208;28;20071;-68
2023/06/01 09:08:26;;;;;;;3.30;1.20;;;13.10;37.30;;;;;;5073184;28;20058;-65
2023/06/01 09:10:52;;;;;;;1.65;0.80;;;13.10;99.90;;;;;;5073106;28;20032;-65
2023/06/01 09:13:34;;;;;;;1.27;0.65;;;13.30;30.30;;;;;;5051687;28;20389;-66
2023/06/01 09:16:00;;;;;;;1.35;0.70;;;13.50;99.90;;;;;;5052866;28;20051;-65
2023/06/01 09:18:26;;;;;;;1.25;0.75;;;13.60;1.00;;;;;;5052723;28;20071;-65
2023/06/01 09:20:53;;;;;;;1.40;0.80;;;13.60;99.90;;;;;;5052702;28;20080;-64
2023/06/01 09:23:26;;;;;;;1.90;0.70;;;13.70;99.90;;;;;;5052948;28;20106;-65
2023/06/01 09:26:08;;;;;;;3.22;0.80;;;13.70;72.70;;;;;;5052962;28;20047;-65
2023/06/01 09:28:52;;;;;;;2.50;0.80;;;13.60;28.60;;;;;;5052935;28;20552;-65
2023/06/01 09:31:40;;;;;;;3.63;1.13;;;13.30;99.90;;;;;;5052956;28;20037;-65
2023/06/01 09:34:11;;;;;;;1.55;0.70;;;13.40;99.90;;;;;;5051303;28;20047;-65
2023/06/01 09:36:36;;;;;;;1.33;0.95;;;13.30;99.90;;;;;;5052885;28;20503;-65
2023/06/01 09:39:06;;;;;;;2.50;1.60;;;13.70;99.90;;;;;;5052838;28;20120;-65
2023/06/01 09:41:50;;;;;;;4.20;1.10;;;13.30;66.20;;;;;;5052776;28;20406;-64
2023/06/01 09:44:22;;;;;;;2.38;1.10;;;13.40;99.90;;;;;;5052676;28;20080;-65
2023/06/01 09:47:12;;;;;;;3.70;1.23;;;13.30;1.00;;;;;;5051474;28;20048;-65
2023/06/01 09:49:42;;;;;;;2.03;1.10;;;13.60;77.00;;;;;;5052401;28;20037;-65
2023/06/01 09:52:16;;;;;;;1.75;1.13;;;13.20;1.00;;;;;;5052784;28;20082;-65
2023/06/01 09:54:47;;;;;;;4.30;1.48;;;14.00;79.70;;;;;;5052623;28;20044;-65
2023/06/01 09:57:23;;;;;;;10.88;1.45;;;13.20;99.90;;;;;;5052678;28;20520;-64
2023/06/01 09:59:48;;;;;;;2.85;1.45;;;13.10;99.90;;;;;;5052680;28;20041;-65
2023/06/01 10:02:16;;;;;;;3.97;1.63;;;13.60;1.00;;;;;;5052601;28;20040;-65
2023/06/01 10:04:49;;;;;;;3.83;1.48;;;13.10;99.90;;;;;;5054026;28;20127;-64
2023/06/01 10:07:16;;;;;;;2.53;1.20;;;12.90;1.00;;;;;;5056569;28;20071;-64
2023/06/01 10:09:45;;;;;;;1.88;1.15;;;13.20;99.90;;;;;;5056499;28;20507;-64
2023/06/01 10:12:11;;;;;;;7.50;1.27;;;13.20;99.90;;;;;;5060347;28;20075;-64
2023/06/01 10:14:38;;;;;;;3.00;1.33;;;13.30;99.90;;;;;;5076413;28;20150;-64
2023/06/01 10:17:05;;;;;;;2.53;1.20;;;13.30;87.30;;;;;;5076104;28;20040;-64
2023/06/01 10:19:30;;;;;;;3.85;1.52;;;13.30;14.10;;;;;;5076338;28;20090;-66
2023/06/01 10:21:59;;;;;;;7.25;1.60;;;13.70;1.00;;;;;;5076127;28;20033;-64
2023/06/01 10:24:26;;;;;;;3.78;1.27;;;13.50;1.00;;;;;;5076142;28;20481;-64
2023/06/01 10:26:58;;;;;;;2.00;1.23;;;13.60;99.90;;;;;;5075888;28;20040;-64
2023/06/01 10:29:25;;;;;;;2.75;1.10;;;13.60;99.90;;;;;;5075741;28;20043;-64
2023/06/01 10:31:51;;;;;;;1.77;0.90;;;13.80;99.90;;;;;;5076017;28;20076;-64
2023/06/01 10:34:40;;;;;;;5.20;1.00;;;13.80;99.90;;;;;;5075683;28;20116;-66
2023/06/01 10:37:12;;;;;;;2.63;1.17;;;13.90;99.90;;;;;;5075980;28;20032;-67
2023/06/01 10:39:38;;;;;;;4.65;1.45;;;13.90;99.90;;;;;;5075578;28;20516;-65
2023/06/01 10:42:13;;;;;;;3.80;1.50;;;14.00;99.90;;;;;;5075898;28;20070;-64
2023/06/01 10:44:39;;;;;;;2.58;1.10;;;13.90;99.90;;;;;;5075760;28;20492;-64
2023/06/01 10:47:05;;;;;;;4.80;1.58;;;14.20;99.90;;;;;;5075451;28;20036;-64
2023/06/01 10:49:49;;;;;;;5.60;1.30;;;13.90;99.90;;;;;;5074486;28;20040;-64
2023/06/01 10:52:38;;;;;;;10.00;1.75;;;13.90;99.90;;;;;;5075403;28;20090;-65
2023/06/01 10:55:07;;;;;;;3.63;1.42;;;13.90;99.90;;;;;;5075751;28;20412;-64
2023/06/01 10:57:33;;;;;;;3.60;1.38;;;13.90;99.90;;;;;;5075320;28;20051;-64
2023/06/01 11:00:14;;;;;;;8.20;1.35;;;14.20;99.90;;;;;;5057495;28;20086;-65
2023/06/01 11:02:59;;;;;;;;;;;14.00;99.90;;;;;;5057616;28;20071;-64
2023/06/01 11:05:35;;;;;;;3.90;1.13;;;14.10;99.90;;;;;;5075522;28;19920;-64
2023/06/01 11:08:01;;;;;;;4.85;1.40;;;14.20;99.90;;;;;;5075509;28;20044;-64
2023/06/01 11:10:51;;;;;;;2.10;1.30;;;14.30;99.90;;;;;;5057188;28;20389;-64
2023/06/01 11:13:29;;;;;;;3.58;1.25;;;14.30;99.90;;;;;;5051678;28;20110;-64
2023/06/01 11:16:04;;;;;;;1.83;1.05;;;14.30;99.90;;;;;;5053619;28;20488;-64
2023/06/01 11:18:49;;;;;;;3.63;1.65;;;14.30;99.90;;;;;;5055314;28;20132;-64
2023/06/01 11:21:17;;;;;;;1.60;1.00;;;14.30;99.90;;;;;;5055199;28;20400;-64
2023/06/01 11:23:45;;;;;;;4.75;1.42;;;14.30;99.90;;;;;;5054999;28;20040;-64
2023/06/01 11:26:18;;;;;;;4.63;1.40;;;14.40;99.90;;;;;;5055021;28;20373;-64
2023/06/01 11:28:47;;;;;;;1.20;0.90;;;14.50;99.90;;;;;;5053628;28;20041;-64
2023/06/01 11:31:18;;;;;;;3.03;1.15;;;14.50;99.90;;;;;;5054952;28;20067;-64
2023/06/01 11:33:53;;;;;;;2.85;1.33;;;14.30;99.90;;;;;;5054638;28;20052;-63
2023/06/01 11:36:26;;;;;;;2.95;1.40;;;14.50;99.90;;;;;;5036957;28;20079;-64
2023/06/01 11:38:53;;;;;;;3.38;1.50;;;14.80;99.90;;;;;;5054854;28;20590;-64
2023/06/01 11:41:23;;;;;;;2.47;1.30;;;14.50;99.90;;;;;;5053189;28;20055;-64
2023/06/01 11:43:56;;;;;;;1.53;0.93;;;14.60;99.90;;;;;;5052970;28;20110;-64
2023/06/01 11:46:22;;;;;;;3.30;1.65;;;14.60;99.90;;;;;;5054702;28;20043;-64
2023/06/01 11:49:14;;;;;;;3.97;1.58;;;14.50;99.90;;;;;;5054355;28;20373;-64
2023/06/01 11:51:42;;;;;;;3.30;1.63;;;14.70;99.90;;;;;;5050520;28;20093;-66
2023/06/01 11:54:08;;;;;;;1.60;1.20;;;14.70;99.90;;;;;;5054655;28;20052;-64
2023/06/01 11:56:39;;;;;;;2.85;1.40;;;14.80;99.90;;;;;;5054399;28;20037;-64
2023/06/01 11:59:09;;;;;;;2.63;1.20;;;14.90;99.90;;;;;;5054178;28;20041;-63
2023/06/01 12:01:38;;;;;;;3.83;1.50;;;15.30;99.90;;;;;;5053188;28;20049;-64
2023/06/01 12:04:07;;;;;;;5.13;1.25;;;15.00;99.90;;;;;;5054328;28;20083;-64
2023/06/01 12:06:33;;;;;;;3.10;1.08;;;14.60;99.90;;;;;;5054117;28;20484;-64
2023/06/01 12:08:59;;;;;;;2.97;1.27;;;14.70;99.90;;;;;;5054314;28;20037;-64
2023/06/01 12:11:26;;;;;;;6.85;1.30;;;15.10;99.90;;;;;;5054265;28;20108;-64
2023/06/01 12:13:55;;;;;;;7.43;1.33;;;15.10;99.90;;;;;;5069953;28;20059;-64
2023/06/01 12:16:22;;;;;;;6.30;1.20;;;15.10;99.90;;;;;;5074087;28;20124;-64
2023/06/01 12:18:47;;;;;;;1.48;1.17;;;15.10;99.90;;;;;;5072781;28;20040;-64
2023/06/01 12:21:13;;;;;;;5.57;1.02;;;14.80;99.90;;;;;;5074120;28;20045;-64
2023/06/01 12:23:39;;;;;;;2.17;0.93;;;15.20;99.90;;;;;;5073527;28;20044;-64
2023/06/01 12:26:06;;;;;;;6.22;1.40;;;15.40;99.90;;;;;;5073869;28;20024;-64
2023/06/01 12:28:53;;;;;;;1.95;1.10;;;15.20;99.90;;;;;;5073606;28;20054;-69
2023/06/01 12:31:19;;;;;;;2.25;1.40;;;15.30;99.90;;;;;;5073474;28;20037;-65
2023/06/01 12:33:46;;;;;;;4.25;1.02;;;15.10;99.90;;;;;;5073434;28;20123;-64
2023/06/01 12:36:31;;;;;;;2.35;1.30;;;15.30;99.90;;;;;;5073620;28;20047;-65
2023/06/01 12:38:58;;;;;;;1.80;1.10;;;15.30;99.90;;;;;;5055793;28;20044;-64
2023/06/01 12:41:24;;;;;;;4.00;1.50;;;15.30;99.90;;;;;;5073589;28;20047;-65
2023/06/01 12:43:50;;;;;;;3.95;1.15;;;15.30;99.90;;;;;;5073507;28;20041;-69
2023/06/01 12:46:24;;;;;;;5.78;1.38;;;15.30;99.90;;;;;;5073512;28;20041;-64
2023/06/01 12:48:53;;;;;;;2.95;1.02;;;15.00;99.90;;;;;;5073396;28;20040;-64
2023/06/01 12:51:20;;;;;;;3.58;1.50;;;15.20;99.90;;;;;;5073404;28;20033;-67
2023/06/01 12:53:45;;;;;;;2.95;1.52;;;14.60;99.90;;;;;;5073042;28;20044;-64
2023/06/01 12:56:12;;;;;;;2.17;1.33;;;15.10;99.90;;;;;;5073299;28;20040;-64
2023/06/01 12:58:38;;;;;;;5.10;1.40;;;14.90;99.90;;;;;;5073026;28;20400;-65